createdAt,value
2019-03-08T00:00:21.263Z,19.93
2019-03-08T00:01:21.325Z,19.93
2019-03-08T00:02:21.269Z,19.93
2019-03-08T00:03:21.169Z,19.92
2019-03-08T00:04:21.260Z,19.91
2019-03-08T00:05:21.117Z,19.91
2019-03-08T00:06:21.243Z,19.9
2019-03-08T00:07:21.317Z,19.9
2019-03-08T00:08:21.184Z,19.9
2019-03-08T00:09:21.195Z,19.89
2019-03-08T00:10:21.347Z,19.89
2019-03-08T00:11:21.122Z,19.89
2019-03-08T00:12:21.177Z,19.88
2019-03-08T00:13:21.287Z,19.88
2019-03-08T00:14:21.114Z,19.87
2019-03-08T00:15:21.208Z,19.87
2019-03-08T00:16:21.341Z,19.86
2019-03-08T00:17:21.137Z,19.86
2019-03-08T00:18:21.233Z,19.86
2019-03-08T00:19:21.283Z,19.85
2019-03-08T00:20:21.188Z,19.85
2019-03-08T00:21:21.173Z,19.84
2019-03-08T00:22:21.599Z,19.84
2019-03-08T00:23:21.157Z,19.84
2019-03-08T00:24:21.188Z,19.85
2019-03-08T00:25:21.290Z,19.84
2019-03-08T00:26:21.176Z,19.84
2019-03-08T00:27:21.331Z,19.83
2019-03-08T00:28:21.313Z,19.82
2019-03-08T00:29:22.001Z,19.82
2019-03-08T00:30:21.189Z,19.82
2019-03-08T00:31:21.277Z,19.82
2019-03-08T00:32:21.141Z,19.82
2019-03-08T00:33:21.133Z,19.81
2019-03-08T00:34:21.322Z,19.81
2019-03-08T00:35:21.116Z,19.8
2019-03-08T00:36:21.187Z,19.8
2019-03-08T00:37:21.273Z,19.79
2019-03-08T00:38:21.125Z,19.79
2019-03-08T00:39:21.184Z,19.79
2019-03-08T00:40:21.306Z,19.79
2019-03-08T00:41:21.116Z,19.8
2019-03-08T00:42:21.274Z,19.78
2019-03-08T00:43:21.316Z,19.79
2019-03-08T00:44:21.110Z,19.78
2019-03-08T00:45:21.183Z,19.77
2019-03-08T00:46:21.317Z,19.77
2019-03-08T00:47:21.110Z,19.78
2019-03-08T00:48:21.229Z,19.77
2019-03-08T00:49:21.282Z,19.76
2019-03-08T00:50:21.140Z,19.76
2019-03-08T00:51:21.202Z,19.76
2019-03-08T00:52:21.290Z,19.76
2019-03-08T00:53:21.169Z,19.76
2019-03-08T00:54:21.186Z,19.75
2019-03-08T00:55:21.306Z,19.75
2019-03-08T00:56:21.118Z,19.74
2019-03-08T00:57:21.288Z,19.75
2019-03-08T00:58:21.286Z,19.73
2019-03-08T00:59:21.147Z,19.73
2019-03-08T01:00:21.150Z,19.73
2019-03-08T01:01:21.290Z,19.72
2019-03-08T01:02:21.088Z,19.73
2019-03-08T01:03:21.271Z,19.72
2019-03-08T01:04:21.284Z,19.71
2019-03-08T01:05:21.144Z,19.72
2019-03-08T01:06:21.212Z,19.71
2019-03-08T01:07:21.621Z,19.72
2019-03-08T01:08:21.170Z,19.71
2019-03-08T01:09:21.208Z,19.71
2019-03-08T01:10:21.331Z,19.71
2019-03-08T01:11:21.460Z,19.7
2019-03-08T01:12:21.378Z,19.7
2019-03-08T01:13:21.320Z,19.7
2019-03-08T01:14:21.141Z,19.69
2019-03-08T01:15:21.215Z,19.69
2019-03-08T01:16:21.140Z,19.69
2019-03-08T01:17:21.139Z,19.68
2019-03-08T01:18:21.225Z,19.68
2019-03-08T01:19:21.336Z,19.68
2019-03-08T01:20:21.116Z,19.68
2019-03-08T01:21:21.203Z,19.68
2019-03-08T01:22:21.399Z,19.67
2019-03-08T01:23:21.140Z,19.67
2019-03-08T01:24:21.192Z,19.67
2019-03-08T01:25:21.576Z,19.66
2019-03-08T01:26:21.097Z,19.66
2019-03-08T01:27:21.201Z,19.66
2019-03-08T01:28:21.364Z,19.65
2019-03-08T01:29:21.160Z,19.65
2019-03-08T01:30:21.236Z,19.64
2019-03-08T01:31:21.286Z,19.64
2019-03-08T01:32:21.153Z,19.64
2019-03-08T01:33:21.314Z,19.64
2019-03-08T01:34:21.316Z,19.64
2019-03-08T01:35:21.206Z,19.64
2019-03-08T01:36:21.197Z,19.64
2019-03-08T01:37:21.379Z,19.64
2019-03-08T01:38:21.198Z,19.63
2019-03-08T01:39:21.287Z,19.63
2019-03-08T01:40:21.397Z,19.63
2019-03-08T01:41:21.171Z,19.63
2019-03-08T01:42:21.268Z,19.62
2019-03-08T01:43:21.290Z,19.62
2019-03-08T01:44:21.175Z,19.61
2019-03-08T01:45:21.188Z,19.61
2019-03-08T01:46:21.478Z,19.61
2019-03-08T01:47:21.201Z,19.59
2019-03-08T01:48:21.183Z,19.59
2019-03-08T01:49:21.327Z,19.6
2019-03-08T01:50:21.095Z,19.6
2019-03-08T01:51:21.197Z,19.59
2019-03-08T01:52:21.326Z,19.58
2019-03-08T01:53:21.096Z,19.59
2019-03-08T01:54:21.254Z,19.58
2019-03-08T01:55:21.344Z,19.58
2019-03-08T01:56:21.412Z,19.58
2019-03-08T01:57:21.173Z,19.57
2019-03-08T01:58:21.299Z,19.57
2019-03-08T01:59:21.125Z,19.57
2019-03-08T02:00:21.161Z,19.57
2019-03-08T02:01:21.288Z,19.56
2019-03-08T02:02:21.158Z,19.57
2019-03-08T02:03:21.185Z,19.56
2019-03-08T02:04:21.297Z,19.56
2019-03-08T02:05:21.133Z,19.56
2019-03-08T02:06:21.183Z,19.54
2019-03-08T02:07:21.277Z,19.55
2019-03-08T02:08:21.102Z,19.54
2019-03-08T02:09:21.272Z,19.55
2019-03-08T02:10:21.310Z,19.54
2019-03-08T02:11:21.405Z,19.54
2019-03-08T02:12:21.168Z,19.54
2019-03-08T02:13:21.330Z,19.53
2019-03-08T02:14:21.138Z,19.53
2019-03-08T02:15:21.215Z,19.53
2019-03-08T02:16:21.376Z,19.53
2019-03-08T02:17:21.119Z,19.53
2019-03-08T02:18:21.178Z,19.53
2019-03-08T02:19:21.273Z,19.52
2019-03-08T02:20:21.083Z,19.52
2019-03-08T02:21:21.281Z,19.52
2019-03-08T02:22:21.402Z,19.51
2019-03-08T02:23:21.125Z,19.51
2019-03-08T02:24:21.176Z,19.52
2019-03-08T02:25:21.268Z,19.51
2019-03-08T02:26:21.198Z,19.5
2019-03-08T02:27:21.192Z,19.49
2019-03-08T02:28:21.295Z,19.5
2019-03-08T02:29:21.170Z,19.5
2019-03-08T02:30:21.274Z,19.49
2019-03-08T02:31:21.655Z,19.49
2019-03-08T02:32:21.117Z,19.49
2019-03-08T02:33:21.198Z,19.48
2019-03-08T02:34:21.379Z,19.49
2019-03-08T02:35:21.133Z,19.49
2019-03-08T02:36:21.293Z,19.48
2019-03-08T02:37:21.472Z,19.48
2019-03-08T02:38:21.294Z,19.48
2019-03-08T02:39:21.218Z,19.48
2019-03-08T02:40:21.333Z,19.48
2019-03-08T02:41:21.126Z,19.48
2019-03-08T02:42:21.144Z,19.48
2019-03-08T02:43:21.320Z,19.47
2019-03-08T02:44:21.118Z,19.46
2019-03-08T02:45:21.226Z,19.47
2019-03-08T02:46:21.387Z,19.46
2019-03-08T02:47:21.139Z,19.46
2019-03-08T02:48:21.178Z,19.47
2019-03-08T02:49:21.344Z,19.45
2019-03-08T02:50:21.183Z,19.44
2019-03-08T02:51:21.173Z,19.45
2019-03-08T02:52:21.232Z,19.45
2019-03-08T02:53:21.125Z,19.45
2019-03-08T02:54:21.175Z,19.45
2019-03-08T02:55:21.026Z,19.44
2019-03-08T02:56:21.100Z,19.44
2019-03-08T02:57:21.259Z,19.44
2019-03-08T02:58:21.270Z,19.44
2019-03-08T02:59:21.121Z,19.44
2019-03-08T03:00:21.294Z,19.44
2019-03-08T03:01:21.287Z,19.43
2019-03-08T03:02:21.141Z,19.42
2019-03-08T03:03:21.191Z,19.42
2019-03-08T03:04:21.500Z,19.42
2019-03-08T03:05:21.064Z,19.41
2019-03-08T03:06:21.146Z,19.41
2019-03-08T03:07:21.013Z,19.42
2019-03-08T03:08:21.115Z,19.42
2019-03-08T03:09:21.357Z,19.41
2019-03-08T03:10:21.233Z,19.41
2019-03-08T03:11:21.095Z,19.4
2019-03-08T03:12:21.252Z,19.41
2019-03-08T03:13:21.030Z,19.4
2019-03-08T03:14:21.134Z,19.4
2019-03-08T03:15:21.142Z,19.4
2019-03-08T03:16:20.971Z,19.4
2019-03-08T03:17:21.189Z,19.39
2019-03-08T03:18:21.335Z,19.39
2019-03-08T03:19:20.991Z,19.39
2019-03-08T03:20:21.154Z,19.38
2019-03-08T03:21:21.296Z,19.38
2019-03-08T03:22:21.131Z,19.38
2019-03-08T03:23:21.196Z,19.37
2019-03-08T03:24:21.171Z,19.38
2019-03-08T03:25:21.068Z,19.38
2019-03-08T03:26:21.129Z,19.38
2019-03-08T03:27:21.165Z,19.37
2019-03-08T03:28:21.100Z,19.38
2019-03-08T03:29:21.151Z,19.38
2019-03-08T03:30:21.274Z,19.37
2019-03-08T03:31:21.118Z,19.37
2019-03-08T03:32:21.131Z,19.37
2019-03-08T03:33:21.177Z,19.35
2019-03-08T03:34:21.000Z,19.35
2019-03-08T03:35:21.143Z,19.36
2019-03-08T03:36:21.149Z,19.35
2019-03-08T03:37:21.020Z,19.35
2019-03-08T03:38:21.153Z,19.34
2019-03-08T03:39:21.177Z,19.35
2019-03-08T03:40:21.024Z,19.34
2019-03-08T03:41:21.143Z,19.34
2019-03-08T03:42:21.261Z,19.34
2019-03-08T03:43:21.123Z,19.33
2019-03-08T03:44:21.124Z,19.33
2019-03-08T03:45:21.169Z,19.32
2019-03-08T03:46:21.003Z,19.32
2019-03-08T03:47:21.393Z,19.32
2019-03-08T03:48:21.187Z,19.33
2019-03-08T03:49:21.028Z,19.32
2019-03-08T03:50:21.207Z,19.32
2019-03-08T03:51:21.217Z,19.33
2019-03-08T03:52:21.167Z,19.32
2019-03-08T03:53:21.170Z,19.31
2019-03-08T03:54:21.206Z,19.31
2019-03-08T03:55:21.003Z,19.31
2019-03-08T03:56:21.147Z,19.31
2019-03-08T03:57:21.330Z,19.31
2019-03-08T03:58:21.041Z,19.31
2019-03-08T03:59:21.144Z,19.31
2019-03-08T04:00:21.210Z,19.3
2019-03-08T04:01:21.125Z,19.3
2019-03-08T04:02:22.169Z,19.3
2019-03-08T04:03:21.204Z,19.29
2019-03-08T04:04:21.296Z,19.29
2019-03-08T04:05:21.143Z,19.3
2019-03-08T04:06:21.259Z,19.29
2019-03-08T04:07:21.383Z,19.28
2019-03-08T04:08:21.163Z,19.28
2019-03-08T04:09:21.006Z,19.28
2019-03-08T04:10:21.049Z,19.29
2019-03-08T04:11:21.169Z,19.28
2019-03-08T04:12:21.274Z,19.28
2019-03-08T04:13:21.056Z,19.28
2019-03-08T04:14:21.360Z,19.28
2019-03-08T04:15:21.009Z,19.27
2019-03-08T04:16:21.191Z,19.27
2019-03-08T04:17:21.226Z,19.26
2019-03-08T04:18:21.101Z,19.27
2019-03-08T04:19:21.094Z,19.26
2019-03-08T04:20:21.210Z,19.26
2019-03-08T04:21:21.115Z,19.25
2019-03-08T04:22:21.106Z,19.25
2019-03-08T04:23:21.216Z,19.24
2019-03-08T04:24:21.044Z,19.25
2019-03-08T04:25:21.078Z,19.25
2019-03-08T04:26:21.186Z,19.25
2019-03-08T04:27:21.063Z,19.24
2019-03-08T04:28:21.213Z,19.25
2019-03-08T04:29:21.258Z,19.25
2019-03-08T04:30:21.090Z,19.24
2019-03-08T04:31:21.093Z,19.24
2019-03-08T04:32:21.159Z,19.23
2019-03-08T04:33:21.030Z,19.24
2019-03-08T04:34:21.030Z,19.24
2019-03-08T04:35:21.521Z,19.24
2019-03-08T04:36:20.995Z,19.24
2019-03-08T04:37:21.074Z,19.23
2019-03-08T04:38:21.209Z,19.23
2019-03-08T04:39:21.344Z,19.23
2019-03-08T04:40:21.189Z,19.23
2019-03-08T04:41:21.162Z,19.23
2019-03-08T04:42:20.981Z,19.23
2019-03-08T04:43:21.034Z,19.23
2019-03-08T04:44:21.203Z,19.24
2019-03-08T04:45:21.064Z,19.24
2019-03-08T04:46:21.070Z,19.25
2019-03-08T04:47:21.188Z,19.27
2019-03-08T04:48:21.247Z,19.27
2019-03-08T04:49:21.074Z,19.27
2019-03-08T04:50:21.248Z,19.27
2019-03-08T04:51:21.248Z,19.28
2019-03-08T04:52:21.152Z,19.29
2019-03-08T04:53:21.208Z,19.3
2019-03-08T04:54:21.311Z,19.32
2019-03-08T04:55:21.343Z,19.31
2019-03-08T04:56:21.179Z,19.32
2019-03-08T04:57:21.471Z,19.33
2019-03-08T04:58:21.093Z,19.34
2019-03-08T04:59:21.161Z,19.35
2019-03-08T05:00:21.201Z,19.36
2019-03-08T05:01:21.021Z,19.37
2019-03-08T05:02:21.154Z,19.39
2019-03-08T05:03:21.223Z,19.4
2019-03-08T05:04:21.121Z,19.41
2019-03-08T05:05:21.414Z,19.43
2019-03-08T05:06:21.304Z,19.45
2019-03-08T05:07:21.018Z,19.47
2019-03-08T05:08:21.130Z,19.48
2019-03-08T05:09:21.210Z,19.5
2019-03-08T05:10:21.148Z,19.51
2019-03-08T05:11:21.127Z,19.53
2019-03-08T05:12:21.193Z,19.55
2019-03-08T05:13:20.972Z,19.57
2019-03-08T05:14:21.071Z,19.58
2019-03-08T05:15:21.272Z,19.6
2019-03-08T05:16:20.975Z,19.62
2019-03-08T05:17:21.098Z,19.64
2019-03-08T05:18:21.177Z,19.66
2019-03-08T05:19:21.116Z,19.66
2019-03-08T05:20:21.103Z,19.67
2019-03-08T05:21:21.135Z,19.68
2019-03-08T05:22:21.006Z,19.71
2019-03-08T05:23:21.093Z,19.73
2019-03-08T05:24:21.256Z,19.73
2019-03-08T05:25:20.995Z,19.74
2019-03-08T05:26:21.113Z,19.76
2019-03-08T05:27:21.132Z,19.78
2019-03-08T05:28:21.008Z,19.78
2019-03-08T05:29:23.574Z,19.8
2019-03-08T05:30:21.131Z,19.83
2019-03-08T05:31:20.965Z,19.83
2019-03-08T05:32:21.132Z,19.84
2019-03-08T05:33:21.125Z,19.86
2019-03-08T05:34:20.938Z,19.87
2019-03-08T05:35:21.120Z,19.88
2019-03-08T05:36:21.141Z,19.89
2019-03-08T05:37:20.923Z,19.91
2019-03-08T05:38:21.069Z,19.92
2019-03-08T05:39:21.293Z,19.93
2019-03-08T05:40:21.014Z,19.94
2019-03-08T05:41:21.093Z,19.94
2019-03-08T05:42:21.159Z,19.96
2019-03-08T05:43:20.967Z,19.97
2019-03-08T05:44:21.114Z,19.98
2019-03-08T05:45:21.136Z,19.99
2019-03-08T05:46:20.973Z,20.01
2019-03-08T05:47:21.084Z,20.01
2019-03-08T05:48:21.175Z,20.03
2019-03-08T05:49:20.991Z,20.03
2019-03-08T05:50:21.096Z,20.04
2019-03-08T05:51:21.124Z,20.06
2019-03-08T05:52:20.948Z,20.08
2019-03-08T05:53:21.090Z,20.08
2019-03-08T05:54:21.139Z,20.1
2019-03-08T05:55:20.992Z,20.11
2019-03-08T05:56:21.094Z,20.11
2019-03-08T05:57:21.143Z,20.13
2019-03-08T05:58:20.922Z,20.13
2019-03-08T05:59:21.070Z,20.15
2019-03-08T06:00:21.171Z,20.15
2019-03-08T06:01:20.965Z,20.16
2019-03-08T06:02:21.084Z,20.18
2019-03-08T06:03:21.263Z,20.17
2019-03-08T06:04:21.000Z,20.19
2019-03-08T06:05:21.116Z,20.2
2019-03-08T06:06:21.450Z,20.22
2019-03-08T06:07:21.104Z,20.23
2019-03-08T06:08:21.102Z,20.23
2019-03-08T06:09:21.295Z,20.23
2019-03-08T06:10:21.001Z,20.25
2019-03-08T06:11:21.134Z,20.25
2019-03-08T06:12:21.284Z,20.25
2019-03-08T06:13:21.102Z,20.27
2019-03-08T06:14:21.130Z,20.27
2019-03-08T06:15:21.269Z,20.29
2019-03-08T06:16:21.153Z,20.27
2019-03-08T06:17:21.108Z,20.11
2019-03-08T06:18:21.283Z,19.99
2019-03-08T06:19:21.007Z,19.9
2019-03-08T06:20:21.162Z,19.81
2019-03-08T06:21:21.274Z,19.74
2019-03-08T06:22:20.998Z,19.68
2019-03-08T06:23:21.098Z,19.58
2019-03-08T06:24:21.239Z,19.53
2019-03-08T06:25:20.969Z,19.46
2019-03-08T06:26:21.380Z,19.44
2019-03-08T06:27:21.146Z,19.4
2019-03-08T06:28:20.945Z,19.37
2019-03-08T06:29:21.160Z,19.31
2019-03-08T06:30:21.134Z,19.29
2019-03-08T06:31:21.051Z,19.23
2019-03-08T06:32:21.081Z,19.19
2019-03-08T06:33:21.262Z,19.14
2019-03-08T06:34:20.994Z,19.11
2019-03-08T06:35:21.152Z,19.15
2019-03-08T06:36:21.237Z,19.23
2019-03-08T06:37:21.110Z,19.32
2019-03-08T06:38:21.153Z,19.38
2019-03-08T06:39:21.045Z,19.44
2019-03-08T06:40:21.181Z,19.5
2019-03-08T06:41:21.232Z,19.55
2019-03-08T06:42:21.111Z,19.6
2019-03-08T06:43:21.389Z,19.64
2019-03-08T06:44:21.497Z,19.68
2019-03-08T06:45:21.188Z,19.71
2019-03-08T06:46:21.227Z,19.73
2019-03-08T06:47:21.274Z,19.76
2019-03-08T06:48:21.136Z,19.79
2019-03-08T06:49:21.168Z,19.8
2019-03-08T06:50:21.263Z,19.83
2019-03-08T06:51:21.300Z,19.85
2019-03-08T06:52:21.111Z,19.86
2019-03-08T06:53:21.290Z,19.89
2019-03-08T06:54:21.144Z,19.9
2019-03-08T06:55:21.414Z,19.9
2019-03-08T06:56:21.121Z,19.93
2019-03-08T06:57:21.203Z,19.93
2019-03-08T06:58:21.246Z,19.95
2019-03-08T06:59:21.121Z,19.95
2019-03-08T07:00:21.153Z,19.96
2019-03-08T07:01:21.273Z,19.97
2019-03-08T07:02:21.117Z,19.99
2019-03-08T07:03:21.193Z,19.99
2019-03-08T07:04:21.031Z,19.99
2019-03-08T07:05:21.034Z,20
2019-03-08T07:06:21.419Z,20.01
2019-03-08T07:07:21.210Z,20
2019-03-08T07:08:21.209Z,20.02
2019-03-08T07:09:21.287Z,20.03
2019-03-08T07:10:21.082Z,20.02
2019-03-08T07:11:21.190Z,20.02
2019-03-08T07:12:21.292Z,20.03
2019-03-08T07:13:21.149Z,20.03
2019-03-08T07:14:21.153Z,20.02
2019-03-08T07:15:21.009Z,20.03
2019-03-08T07:16:21.101Z,20.04
2019-03-08T07:17:21.148Z,20.03
2019-03-08T07:18:21.012Z,20.05
2019-03-08T07:19:21.200Z,20.05
2019-03-08T07:20:21.169Z,20.04
2019-03-08T07:21:21.083Z,20.04
2019-03-08T07:22:21.149Z,20.04
2019-03-08T07:23:27.778Z,20.04
2019-03-08T07:24:21.060Z,20.04
2019-03-08T07:25:21.183Z,20.04
2019-03-08T07:26:21.200Z,20.05
2019-03-08T07:27:21.134Z,20.05
2019-03-08T07:28:21.205Z,20.04
2019-03-08T07:29:21.230Z,20.03
2019-03-08T07:30:21.180Z,20.04
2019-03-08T07:31:21.211Z,20.02
2019-03-08T07:32:21.038Z,20.03
2019-03-08T07:33:21.093Z,20.02
2019-03-08T07:34:21.195Z,20.03
2019-03-08T07:35:21.050Z,20.02
2019-03-08T07:36:21.158Z,20.02
2019-03-08T07:37:21.280Z,20.02
2019-03-08T07:38:21.220Z,20.02
2019-03-08T07:39:21.189Z,20.02
2019-03-08T07:40:21.235Z,20.01
2019-03-08T07:41:21.041Z,20.02
2019-03-08T07:42:21.151Z,20.02
2019-03-08T07:43:21.065Z,20.01
2019-03-08T07:44:21.115Z,20.01
2019-03-08T07:45:21.159Z,20.01
2019-03-08T07:46:21.030Z,20
2019-03-08T07:47:21.076Z,20
2019-03-08T07:48:21.191Z,20.01
2019-03-08T07:49:22.404Z,20
2019-03-08T07:50:21.101Z,20
2019-03-08T07:51:21.067Z,20
2019-03-08T07:52:21.139Z,19.99
2019-03-08T07:53:21.114Z,20
2019-03-08T07:54:21.283Z,20
2019-03-08T07:55:21.027Z,19.99
2019-03-08T07:56:21.155Z,20
2019-03-08T07:57:21.194Z,19.99
2019-03-08T07:58:21.085Z,19.98
2019-03-08T07:59:21.174Z,19.98
2019-03-08T08:00:21.021Z,19.98
2019-03-08T08:01:21.071Z,19.98
2019-03-08T08:02:21.168Z,19.98
2019-03-08T08:03:21.049Z,19.99
2019-03-08T08:04:21.146Z,19.97
2019-03-08T08:05:21.166Z,19.98
2019-03-08T08:06:21.058Z,19.98
2019-03-08T08:07:21.092Z,19.98
2019-03-08T08:08:21.221Z,19.97
2019-03-08T08:09:21.062Z,19.97
2019-03-08T08:10:21.163Z,19.97
2019-03-08T08:11:21.552Z,19.97
2019-03-08T08:12:21.096Z,19.98
2019-03-08T08:13:21.131Z,19.97
2019-03-08T08:14:21.018Z,19.97
2019-03-08T08:15:21.115Z,19.96
2019-03-08T08:16:21.206Z,19.96
2019-03-08T08:17:20.994Z,19.96
2019-03-08T08:18:21.111Z,19.96
2019-03-08T08:19:21.184Z,19.95
2019-03-08T08:20:21.256Z,19.93
2019-03-08T08:21:21.005Z,19.94
2019-03-08T08:22:21.047Z,19.95
2019-03-08T08:23:21.195Z,19.96
2019-03-08T08:24:20.936Z,19.96
2019-03-08T08:25:21.010Z,19.97
2019-03-08T08:26:21.197Z,19.98
2019-03-08T08:27:20.955Z,19.97
2019-03-08T08:28:21.038Z,19.97
2019-03-08T08:29:21.129Z,19.98
2019-03-08T08:30:21.036Z,19.97
2019-03-08T08:31:21.074Z,19.99
2019-03-08T08:32:21.203Z,20
2019-03-08T08:33:20.970Z,20.01
2019-03-08T08:34:21.920Z,20.01
2019-03-08T08:35:21.156Z,20.01
2019-03-08T08:36:21.294Z,20.01
2019-03-08T08:37:21.286Z,20.02
2019-03-08T08:38:21.213Z,20.04
2019-03-08T08:39:20.978Z,20.05
2019-03-08T08:40:20.964Z,20.07
2019-03-08T08:41:21.173Z,20.08
2019-03-08T08:42:20.956Z,20.09
2019-03-08T08:43:20.978Z,20.11
2019-03-08T08:44:21.107Z,20.12
2019-03-08T08:45:20.957Z,20.16
2019-03-08T08:46:21.023Z,20.16
2019-03-08T08:47:21.094Z,20.18
2019-03-08T08:48:21.011Z,20.2
2019-03-08T08:49:20.999Z,20.21
2019-03-08T08:50:21.089Z,20.23
2019-03-08T08:51:20.929Z,20.25
2019-03-08T08:52:20.994Z,20.26
2019-03-08T08:53:21.141Z,20.28
2019-03-08T08:54:20.881Z,20.27
2019-03-08T08:55:20.930Z,20.3
2019-03-08T08:56:21.066Z,20.31
2019-03-08T08:57:21.235Z,20.33
2019-03-08T08:58:21.064Z,20.34
2019-03-08T08:59:21.063Z,20.36
2019-03-08T09:00:21.079Z,20.37
2019-03-08T09:01:20.903Z,20.39
2019-03-08T09:02:21.106Z,20.4
2019-03-08T09:03:21.104Z,20.41
2019-03-08T09:04:21.042Z,20.43
2019-03-08T09:05:21.071Z,20.44
2019-03-08T09:06:21.103Z,20.45
2019-03-08T09:07:21.110Z,20.48
2019-03-08T09:08:21.126Z,20.49
2019-03-08T09:09:21.127Z,20.5
2019-03-08T09:10:20.946Z,20.5
2019-03-08T09:11:21.063Z,20.51
2019-03-08T09:12:20.923Z,20.54
2019-03-08T09:13:21.090Z,20.54
2019-03-08T09:14:21.114Z,20.56
2019-03-08T09:15:20.880Z,20.57
2019-03-08T09:16:20.939Z,20.59
2019-03-08T09:17:21.058Z,20.59
2019-03-08T09:18:21.126Z,20.61
2019-03-08T09:19:20.893Z,20.62
2019-03-08T09:20:21.413Z,20.62
2019-03-08T09:21:21.116Z,20.64
2019-03-08T09:22:20.945Z,20.66
2019-03-08T09:23:21.072Z,20.66
2019-03-08T09:24:21.211Z,20.67
2019-03-08T09:25:21.075Z,20.69
2019-03-08T09:26:21.174Z,20.71
2019-03-08T09:27:20.973Z,20.72
2019-03-08T09:28:21.112Z,20.73
2019-03-08T09:29:21.050Z,20.73
2019-03-08T09:30:20.882Z,20.74
2019-03-08T09:31:20.938Z,20.75
2019-03-08T09:32:21.067Z,20.75
2019-03-08T09:33:20.901Z,20.76
2019-03-08T09:34:20.981Z,20.77
2019-03-08T09:35:21.116Z,20.79
2019-03-08T09:36:20.989Z,20.81
2019-03-08T09:37:20.936Z,20.81
2019-03-08T09:38:21.119Z,20.83
2019-03-08T09:39:21.248Z,20.82
2019-03-08T09:40:21.043Z,20.82
2019-03-08T09:41:21.037Z,20.84
2019-03-08T09:42:21.191Z,20.83
2019-03-08T09:43:20.933Z,20.83
2019-03-08T09:44:21.052Z,20.82
2019-03-08T09:45:21.200Z,20.82
2019-03-08T09:46:20.912Z,20.84
2019-03-08T09:47:21.051Z,20.82
2019-03-08T09:48:20.846Z,20.84
2019-03-08T09:49:20.929Z,20.83
2019-03-08T09:50:20.997Z,20.83
2019-03-08T09:51:21.182Z,20.84
2019-03-08T09:52:20.982Z,20.84
2019-03-08T09:53:21.011Z,20.83
2019-03-08T09:54:21.167Z,20.84
2019-03-08T09:55:21.034Z,20.83
2019-03-08T09:56:21.074Z,20.83
2019-03-08T09:57:21.093Z,20.84
2019-03-08T09:58:21.000Z,20.83
2019-03-08T09:59:21.095Z,20.83
2019-03-08T10:00:21.099Z,20.84
2019-03-08T10:01:21.011Z,20.84
2019-03-08T10:02:21.060Z,20.84
2019-03-08T10:03:21.106Z,20.84
2019-03-08T10:04:21.041Z,20.84
2019-03-08T10:05:21.092Z,20.84
2019-03-08T10:06:20.869Z,20.85
2019-03-08T10:07:21.083Z,20.84
2019-03-08T10:08:21.123Z,20.85
2019-03-08T10:09:20.909Z,20.85
2019-03-08T10:10:21.315Z,20.86
2019-03-08T10:11:21.094Z,20.86
2019-03-08T10:12:21.069Z,20.86
2019-03-08T10:13:21.071Z,20.86
2019-03-08T10:14:21.085Z,20.87
2019-03-08T10:15:20.939Z,20.87
2019-03-08T10:16:20.963Z,20.88
2019-03-08T10:17:21.092Z,20.88
2019-03-08T10:18:20.920Z,20.88
2019-03-08T10:19:20.992Z,20.88
2019-03-08T10:20:21.045Z,20.9
2019-03-08T10:21:20.934Z,20.89
2019-03-08T10:22:21.069Z,20.9
2019-03-08T10:23:21.127Z,20.89
2019-03-08T10:24:21.012Z,20.91
2019-03-08T10:25:20.955Z,20.91
2019-03-08T10:26:21.062Z,20.91
2019-03-08T10:27:21.108Z,20.91
2019-03-08T10:28:20.996Z,20.93
2019-03-08T10:29:21.045Z,20.93
2019-03-08T10:30:20.870Z,20.93
2019-03-08T10:31:20.893Z,20.94
2019-03-08T10:32:21.088Z,20.95
2019-03-08T10:33:21.143Z,20.94
2019-03-08T10:34:20.930Z,20.94
2019-03-08T10:35:23.988Z,20.97
2019-03-08T10:36:21.077Z,20.97
2019-03-08T10:37:20.941Z,20.98
2019-03-08T10:38:22.770Z,20.98
2019-03-08T10:39:20.875Z,20.99
2019-03-08T10:40:20.967Z,20.98
2019-03-08T10:41:21.080Z,20.98
2019-03-08T10:42:20.959Z,21
2019-03-08T10:43:20.947Z,21.01
2019-03-08T10:44:21.082Z,21.01
2019-03-08T10:45:20.893Z,21.01
2019-03-08T10:46:20.962Z,21.01
2019-03-08T10:47:21.027Z,21.01
2019-03-08T10:48:21.148Z,21.02
2019-03-08T10:49:21.110Z,21.01
2019-03-08T10:50:21.152Z,21.02
2019-03-08T10:51:20.926Z,21.02
2019-03-08T10:52:21.079Z,21.02
2019-03-08T10:53:21.036Z,21.02
2019-03-08T10:54:20.981Z,21.02
2019-03-08T10:55:20.967Z,21.02
2019-03-08T10:56:21.043Z,21.02
2019-03-08T10:57:20.953Z,21.03
2019-03-08T10:58:20.976Z,21.02
2019-03-08T10:59:21.063Z,21.02
2019-03-08T11:00:20.893Z,21.03
2019-03-08T11:01:20.942Z,21.02
2019-03-08T11:02:21.150Z,21.01
2019-03-08T11:03:20.946Z,21.02
2019-03-08T11:04:20.952Z,21.02
2019-03-08T11:05:21.211Z,21.02
2019-03-08T11:06:20.987Z,21.03
2019-03-08T11:07:20.972Z,21.02
2019-03-08T11:08:29.475Z,21.02
2019-03-08T11:09:20.966Z,21.02
2019-03-08T11:10:20.995Z,21.02
2019-03-08T11:11:21.329Z,21.02
2019-03-08T11:12:20.973Z,21.03
2019-03-08T11:13:20.917Z,21.01
2019-03-08T11:14:21.096Z,21.02
2019-03-08T11:15:24.326Z,21.02
2019-03-08T11:16:20.922Z,21.02
2019-03-08T11:17:21.128Z,21.02
2019-03-08T11:18:20.986Z,21.03
2019-03-08T11:19:21.046Z,21.02
2019-03-08T11:20:21.113Z,21.01
2019-03-08T11:21:20.941Z,21.01
2019-03-08T11:22:21.106Z,21
2019-03-08T11:23:21.116Z,21.02
2019-03-08T11:24:20.987Z,21.01
2019-03-08T11:25:21.083Z,21
2019-03-08T11:26:21.087Z,21.01
2019-03-08T11:27:20.928Z,21.01
2019-03-08T11:28:21.435Z,21.01
2019-03-08T11:29:21.056Z,20.96
2019-03-08T11:30:21.808Z,20.94
2019-03-08T11:31:20.929Z,20.97
2019-03-08T11:32:23.180Z,20.99
2019-03-08T11:33:21.021Z,21
2019-03-08T11:34:21.051Z,21.02
2019-03-08T11:35:20.961Z,21.05
2019-03-08T11:36:21.182Z,21.05
2019-03-08T11:37:20.938Z,21.06
2019-03-08T11:38:22.680Z,21.06
2019-03-08T11:39:21.056Z,21.07
2019-03-08T11:40:20.928Z,21.06
2019-03-08T11:41:21.071Z,21.07
2019-03-08T11:42:21.176Z,21.08
2019-03-08T11:43:21.008Z,21.1
2019-03-08T11:44:21.051Z,21.08
2019-03-08T11:45:21.059Z,21.09
2019-03-08T11:46:20.912Z,21.09
2019-03-08T11:47:21.062Z,21.1
2019-03-08T11:48:21.067Z,21.11
2019-03-08T11:49:21.039Z,21.12
2019-03-08T11:50:21.036Z,21.1
2019-03-08T11:51:21.071Z,21.11
2019-03-08T11:52:20.917Z,21.11
2019-03-08T11:53:20.993Z,21.1
2019-03-08T11:54:21.160Z,21.11
2019-03-08T11:55:20.870Z,21.1
2019-03-08T11:56:20.985Z,21.11
2019-03-08T11:57:21.036Z,21.1
2019-03-08T11:58:21.370Z,21.12
2019-03-08T11:59:20.998Z,21.11
2019-03-08T12:00:20.990Z,21.11
2019-03-08T12:01:21.094Z,21.13
2019-03-08T12:02:20.981Z,21.13
2019-03-08T12:03:20.981Z,21.14
2019-03-08T12:04:21.116Z,21.15
2019-03-08T12:05:20.938Z,21.15
2019-03-08T12:06:20.995Z,21.15
2019-03-08T12:07:21.105Z,21.14
2019-03-08T12:08:20.867Z,21.15
2019-03-08T12:09:21.000Z,21.15
2019-03-08T12:10:20.948Z,21.15
2019-03-08T12:11:20.940Z,21.15
2019-03-08T12:12:21.104Z,21.16
2019-03-08T12:13:20.809Z,21.18
2019-03-08T12:14:20.988Z,21.17
2019-03-08T12:15:20.925Z,21.18
2019-03-08T12:16:21.534Z,21.17
2019-03-08T12:17:20.945Z,21.19
2019-03-08T12:18:21.086Z,21.18
2019-03-08T12:19:20.861Z,21.19
2019-03-08T12:20:20.943Z,21.2
2019-03-08T12:21:21.046Z,21.21
2019-03-08T12:22:21.113Z,21.22
2019-03-08T12:23:20.929Z,21.21
2019-03-08T12:24:20.984Z,21.22
2019-03-08T12:25:21.107Z,21.23
2019-03-08T12:26:20.977Z,21.24
2019-03-08T12:27:21.075Z,21.24
2019-03-08T12:28:21.110Z,21.23
2019-03-08T12:29:20.936Z,21.23
2019-03-08T12:30:20.870Z,21.24
2019-03-08T12:31:21.080Z,21.25
2019-03-08T12:32:20.932Z,21.25
2019-03-08T12:33:20.918Z,21.25
2019-03-08T12:34:21.099Z,21.27
2019-03-08T12:35:20.895Z,21.27
2019-03-08T12:36:20.932Z,21.27
2019-03-08T12:37:21.128Z,21.27
2019-03-08T12:38:21.010Z,21.28
2019-03-08T12:39:20.947Z,21.3
2019-03-08T12:40:21.056Z,21.3
2019-03-08T12:41:20.887Z,21.28
2019-03-08T12:42:21.063Z,21.27
2019-03-08T12:43:21.051Z,21.28
2019-03-08T12:44:21.066Z,21.28
2019-03-08T12:45:20.876Z,21.27
2019-03-08T12:46:20.930Z,21.28
2019-03-08T12:47:21.079Z,21.28
2019-03-08T12:48:23.991Z,21.28
2019-03-08T12:49:20.910Z,21.28
2019-03-08T12:50:21.031Z,21.28
2019-03-08T12:51:21.013Z,21.28
2019-03-08T12:52:20.948Z,21.27
2019-03-08T12:53:21.027Z,21.28
2019-03-08T12:54:21.036Z,21.28
2019-03-08T12:55:21.052Z,21.27